LAN110 SOCA-SMJP
Flight info
| Callsign | LAN110 |
|---|---|
| Flight time | 0h 39m |
| Altitude | 26000 |
| Route | KALEP1A KALEP DCT MIKOK UG443 ZY DCT SIPIX |
| Aircraft | A320/M-SDE3FGHIRWY/LB1 |
Departure
| Time | 2026-04-16 17:54 |
|---|---|
| Airport | Cayenne – Félix Eboué Airport (SOCA) |
Arrival
| Time | 2026-04-16 18:34 |
|---|---|
| Airport | Johan Adolf Pengel International Airport (SMJP) |
| Time | Latitude | Longitude | Altitude | Speed | Heading |
|---|---|---|---|---|---|
| 2026-04-16 17:41 | 4.81677 | -52.37548 | 28 ft | 0 kts | 327° |
| 2026-04-16 17:50 | 4.81662 | -52.37538 | 27 ft | 4 kts | 325° |
| 2026-04-16 17:50 | 4.81640 | -52.37522 | 27 ft | 4 kts | 314° |
| 2026-04-16 17:50 | 4.81627 | -52.37502 | 27 ft | 4 kts | 267° |
| 2026-04-16 17:50 | 4.81629 | -52.37491 | 27 ft | 1 kts | 243° |
| 2026-04-16 17:51 | 4.81630 | -52.37490 | 27 ft | 0 kts | 243° |
| 2026-04-16 17:52 | 4.81628 | -52.37494 | 27 ft | 4 kts | 243° |
| 2026-04-16 17:52 | 4.81588 | -52.37527 | 27 ft | 8 kts | 174° |
| 2026-04-16 17:53 | 4.81539 | -52.37495 | 27 ft | 12 kts | 145° |
| 2026-04-16 17:53 | 4.81462 | -52.37445 | 28 ft | 13 kts | 148° |
| 2026-04-16 17:53 | 4.81428 | -52.37368 | 28 ft | 13 kts | 98° |
| 2026-04-16 17:53 | 4.81457 | -52.37270 | 27 ft | 25 kts | 66° |
| 2026-04-16 17:54 | 4.81636 | -52.36888 | 29 ft | 93 kts | 65° |
| 2026-04-16 17:54 | 4.81991 | -52.36126 | 29 ft | 146 kts | 65° |
| 2026-04-16 17:54 | 4.82446 | -52.35129 | 400 ft | 158 kts | 62° |
| 2026-04-16 17:54 | 4.82911 | -52.34127 | 966 ft | 157 kts | 66° |
| 2026-04-16 17:55 | 4.83170 | -52.33061 | 1645 ft | 156 kts | 79° |
| 2026-04-16 17:55 | 4.83358 | -52.32003 | 2238 ft | 156 kts | 75° |
| 2026-04-16 17:55 | 4.83645 | -52.30883 | 2543 ft | 176 kts | 73° |
| 2026-04-16 17:55 | 4.83989 | -52.29620 | 2793 ft | 199 kts | 73° |
| 2026-04-16 17:56 | 4.84369 | -52.28219 | 3152 ft | 219 kts | 75° |
| 2026-04-16 17:56 | 4.84781 | -52.26675 | 3581 ft | 238 kts | 74° |
| 2026-04-16 17:56 | 4.85646 | -52.23382 | 5078 ft | 248 kts | 75° |
| 2026-04-16 17:57 | 4.86087 | -52.21693 | 5869 ft | 252 kts | 74° |
| 2026-04-16 17:57 | 4.86863 | -52.20116 | 6635 ft | 257 kts | 51° |
| 2026-04-16 17:57 | 4.88269 | -52.18984 | 7347 ft | 266 kts | 27° |
| 2026-04-16 17:57 | 4.90082 | -52.18559 | 8085 ft | 274 kts | 2° |
| 2026-04-16 17:58 | 4.91967 | -52.18979 | 8792 ft | 285 kts | 339° |
| 2026-04-16 17:58 | 4.93770 | -52.19823 | 9548 ft | 288 kts | 337° |
| 2026-04-16 17:58 | 4.95592 | -52.20696 | 10336 ft | 291 kts | 335° |
| 2026-04-16 17:58 | 4.97427 | -52.21576 | 11154 ft | 294 kts | 338° |
| 2026-04-16 17:59 | 4.99281 | -52.22461 | 11934 ft | 296 kts | 337° |
| 2026-04-16 17:59 | 5.01128 | -52.23339 | 12644 ft | 299 kts | 337° |
| 2026-04-16 17:59 | 5.03014 | -52.24230 | 13345 ft | 301 kts | 336° |
| 2026-04-16 17:59 | 5.04913 | -52.25123 | 13955 ft | 303 kts | 336° |
| 2026-04-16 18:00 | 5.06695 | -52.26266 | 14489 ft | 309 kts | 317° |
| 2026-04-16 18:00 | 5.07895 | -52.28065 | 15015 ft | 316 kts | 291° |
| 2026-04-16 18:00 | 5.08257 | -52.30254 | 15347 ft | 330 kts | 265° |
| 2026-04-16 18:00 | 5.07582 | -52.32495 | 15474 ft | 348 kts | 240° |
| 2026-04-16 18:01 | 5.06306 | -52.34628 | 15589 ft | 366 kts | 238° |
| 2026-04-16 18:01 | 5.04942 | -52.36850 | 15711 ft | 383 kts | 238° |
| 2026-04-16 18:01 | 5.03519 | -52.39168 | 15832 ft | 398 kts | 238° |
| 2026-04-16 18:01 | 5.02048 | -52.41580 | 15965 ft | 412 kts | 239° |
| 2026-04-16 18:02 | 5.00549 | -52.44058 | 16278 ft | 420 kts | 239° |
| 2026-04-16 18:02 | 4.99035 | -52.46573 | 16758 ft | 422 kts | 239° |
| 2026-04-16 18:02 | 4.97515 | -52.49100 | 17260 ft | 425 kts | 239° |
| 2026-04-16 18:02 | 4.95979 | -52.51644 | 17719 ft | 428 kts | 239° |
| 2026-04-16 18:03 | 4.94432 | -52.54203 | 18243 ft | 429 kts | 239° |
| 2026-04-16 18:03 | 4.92891 | -52.56774 | 18719 ft | 431 kts | 241° |
| 2026-04-16 18:03 | 4.91676 | -52.59518 | 19121 ft | 432 kts | 252° |
| 2026-04-16 18:03 | 4.91055 | -52.62463 | 19510 ft | 433 kts | 264° |
| 2026-04-16 18:04 | 4.91061 | -52.65486 | 19888 ft | 435 kts | 276° |
| 2026-04-16 18:04 | 4.91702 | -52.68459 | 20237 ft | 438 kts | 288° |
| 2026-04-16 18:04 | 4.92934 | -52.71259 | 20579 ft | 441 kts | 297° |
| 2026-04-16 18:04 | 4.94374 | -52.73991 | 20879 ft | 445 kts | 297° |
| 2026-04-16 18:05 | 4.95825 | -52.76741 | 21193 ft | 448 kts | 298° |
| 2026-04-16 18:05 | 4.97288 | -52.79506 | 21529 ft | 450 kts | 297° |
| 2026-04-16 18:05 | 4.98759 | -52.82284 | 21847 ft | 452 kts | 297° |
| 2026-04-16 18:05 | 5.00234 | -52.85076 | 22159 ft | 455 kts | 297° |
| 2026-04-16 18:06 | 5.01714 | -52.87884 | 22486 ft | 456 kts | 297° |
| 2026-04-16 18:06 | 5.03198 | -52.90708 | 22761 ft | 459 kts | 297° |
| 2026-04-16 18:06 | 5.04686 | -52.93546 | 23078 ft | 460 kts | 297° |
| 2026-04-16 18:06 | 5.06183 | -52.96394 | 23333 ft | 463 kts | 297° |
| 2026-04-16 18:07 | 5.07691 | -52.99258 | 23559 ft | 466 kts | 296° |
| 2026-04-16 18:07 | 5.09209 | -53.02134 | 23775 ft | 467 kts | 297° |
| 2026-04-16 18:07 | 5.10730 | -53.05018 | 24017 ft | 468 kts | 297° |
| 2026-04-16 18:07 | 5.12252 | -53.07906 | 24275 ft | 468 kts | 297° |
| 2026-04-16 18:08 | 5.13776 | -53.10799 | 24504 ft | 470 kts | 297° |
| 2026-04-16 18:08 | 5.14788 | -53.12722 | 24640 ft | 471 kts | 297° |
| 2026-04-16 18:08 | 5.16233 | -53.15677 | 24821 ft | 473 kts | 290° |
| 2026-04-16 18:08 | 5.17237 | -53.18813 | 25032 ft | 472 kts | 281° |
| 2026-04-16 18:09 | 5.17742 | -53.22058 | 25233 ft | 472 kts | 273° |
| 2026-04-16 18:09 | 5.17978 | -53.25389 | 25437 ft | 473 kts | 272° |
| 2026-04-16 18:09 | 5.18208 | -53.28645 | 25604 ft | 475 kts | 272° |
| 2026-04-16 18:09 | 5.18444 | -53.31957 | 25784 ft | 477 kts | 272° |
| 2026-04-16 18:10 | 5.18683 | -53.35280 | 25862 ft | 480 kts | 272° |
| 2026-04-16 18:10 | 5.18927 | -53.38631 | 25878 ft | 483 kts | 272° |
| 2026-04-16 18:10 | 5.19174 | -53.41994 | 25876 ft | 484 kts | 272° |
| 2026-04-16 18:10 | 5.19426 | -53.45405 | 25876 ft | 484 kts | 272° |
| 2026-04-16 18:11 | 5.19673 | -53.48727 | 25878 ft | 484 kts | 272° |
| 2026-04-16 18:11 | 5.19920 | -53.52098 | 25876 ft | 484 kts | 272° |
| 2026-04-16 18:11 | 5.20166 | -53.55466 | 25876 ft | 484 kts | 272° |
| 2026-04-16 18:11 | 5.20407 | -53.58831 | 25876 ft | 484 kts | 272° |
| 2026-04-16 18:12 | 5.20645 | -53.62198 | 25876 ft | 484 kts | 272° |
| 2026-04-16 18:12 | 5.20885 | -53.65567 | 25875 ft | 484 kts | 272° |
| 2026-04-16 18:12 | 5.21127 | -53.68933 | 25874 ft | 484 kts | 272° |
| 2026-04-16 18:12 | 5.21372 | -53.72300 | 25874 ft | 484 kts | 272° |
| 2026-04-16 18:13 | 5.21614 | -53.75666 | 25877 ft | 484 kts | 272° |
| 2026-04-16 18:13 | 5.21853 | -53.79030 | 25877 ft | 484 kts | 272° |
| 2026-04-16 18:13 | 5.22091 | -53.82392 | 25875 ft | 483 kts | 272° |
| 2026-04-16 18:13 | 5.22330 | -53.85758 | 25874 ft | 483 kts | 272° |
| 2026-04-16 18:14 | 5.22570 | -53.89120 | 25874 ft | 483 kts | 272° |
| 2026-04-16 18:14 | 5.22812 | -53.92484 | 25872 ft | 483 kts | 272° |
| 2026-04-16 18:14 | 5.23055 | -53.95847 | 25874 ft | 483 kts | 272° |
| 2026-04-16 18:14 | 5.23297 | -53.99208 | 25873 ft | 483 kts | 272° |
| 2026-04-16 18:15 | 5.23535 | -54.02570 | 25867 ft | 484 kts | 272° |
| 2026-04-16 18:15 | 5.23774 | -54.05938 | 25867 ft | 484 kts | 273° |
| 2026-04-16 18:15 | 5.24013 | -54.09312 | 25864 ft | 484 kts | 273° |
| 2026-04-16 18:15 | 5.24253 | -54.12682 | 25863 ft | 485 kts | 272° |
| 2026-04-16 18:16 | 5.24494 | -54.16056 | 25865 ft | 485 kts | 273° |
| 2026-04-16 18:16 | 5.24736 | -54.19432 | 25853 ft | 485 kts | 273° |
| 2026-04-16 18:16 | 5.24978 | -54.22815 | 25637 ft | 486 kts | 273° |
| 2026-04-16 18:16 | 5.25220 | -54.26196 | 25051 ft | 485 kts | 273° |
| 2026-04-16 18:17 | 5.25487 | -54.29580 | 23952 ft | 488 kts | 276° |
| 2026-04-16 18:17 | 5.26112 | -54.32942 | 22728 ft | 492 kts | 282° |
| 2026-04-16 18:17 | 5.26858 | -54.36271 | 21856 ft | 485 kts | 282° |
| 2026-04-16 18:17 | 5.27590 | -54.39546 | 21033 ft | 478 kts | 282° |
| 2026-04-16 18:18 | 5.28303 | -54.42760 | 20372 ft | 468 kts | 283° |
| 2026-04-16 18:18 | 5.29002 | -54.45920 | 19657 ft | 460 kts | 283° |
| 2026-04-16 18:18 | 5.29690 | -54.49029 | 18917 ft | 454 kts | 283° |
| 2026-04-16 18:18 | 5.30372 | -54.52104 | 18203 ft | 449 kts | 284° |
| 2026-04-16 18:19 | 5.31042 | -54.55119 | 17111 ft | 437 kts | 284° |
| 2026-04-16 18:19 | 5.31698 | -54.58078 | 15895 ft | 430 kts | 283° |
| 2026-04-16 18:19 | 5.32329 | -54.60935 | 15336 ft | 412 kts | 283° |
| 2026-04-16 18:19 | 5.32950 | -54.63742 | 14665 ft | 413 kts | 283° |
| 2026-04-16 18:20 | 5.33577 | -54.66559 | 14001 ft | 414 kts | 283° |
| 2026-04-16 18:20 | 5.34206 | -54.69379 | 13307 ft | 415 kts | 283° |
| 2026-04-16 18:20 | 5.34835 | -54.72193 | 12656 ft | 412 kts | 283° |
| 2026-04-16 18:20 | 5.35460 | -54.74991 | 12007 ft | 409 kts | 283° |
| 2026-04-16 18:21 | 5.36079 | -54.77771 | 11356 ft | 406 kts | 283° |
| 2026-04-16 18:21 | 5.36682 | -54.80494 | 11132 ft | 392 kts | 283° |
| 2026-04-16 18:21 | 5.37259 | -54.83108 | 11010 ft | 375 kts | 283° |
| 2026-04-16 18:21 | 5.37813 | -54.85611 | 10886 ft | 360 kts | 283° |
| 2026-04-16 18:22 | 5.38344 | -54.88019 | 10764 ft | 347 kts | 283° |
| 2026-04-16 18:22 | 5.38858 | -54.90344 | 10652 ft | 336 kts | 283° |
| 2026-04-16 18:22 | 5.39356 | -54.92597 | 10530 ft | 326 kts | 283° |
| 2026-04-16 18:22 | 5.39839 | -54.94792 | 10402 ft | 319 kts | 283° |
| 2026-04-16 18:23 | 5.40312 | -54.96949 | 10194 ft | 314 kts | 283° |
| 2026-04-16 18:23 | 5.40780 | -54.99074 | 10037 ft | 310 kts | 283° |
| 2026-04-16 18:23 | 5.41239 | -55.01142 | 9906 ft | 306 kts | 283° |
| 2026-04-16 18:23 | 5.41702 | -55.03229 | 9535 ft | 309 kts | 283° |
| 2026-04-16 18:24 | 5.42171 | -55.05346 | 9040 ft | 312 kts | 283° |
| 2026-04-16 18:24 | 5.42644 | -55.07482 | 8636 ft | 311 kts | 283° |
| 2026-04-16 18:24 | 5.43108 | -55.09581 | 8339 ft | 306 kts | 283° |
| 2026-04-16 18:24 | 5.43568 | -55.11660 | 7956 ft | 304 kts | 283° |
| 2026-04-16 18:25 | 5.44028 | -55.13736 | 7504 ft | 305 kts | 283° |
| 2026-04-16 18:25 | 5.44485 | -55.15811 | 7116 ft | 304 kts | 284° |
| 2026-04-16 18:25 | 5.44944 | -55.17870 | 6761 ft | 300 kts | 286° |
| 2026-04-16 18:25 | 5.45691 | -55.19808 | 6378 ft | 297 kts | 297° |
| 2026-04-16 18:26 | 5.46567 | -55.21682 | 5979 ft | 296 kts | 297° |
| 2026-04-16 18:26 | 5.47441 | -55.23537 | 5617 ft | 291 kts | 297° |
| 2026-04-16 18:26 | 5.48294 | -55.25353 | 4965 ft | 286 kts | 297° |
| 2026-04-16 18:26 | 5.49162 | -55.27203 | 3821 ft | 300 kts | 297° |
| 2026-04-16 18:27 | 5.50051 | -55.29101 | 3102 ft | 296 kts | 297° |
| 2026-04-16 18:27 | 5.50885 | -55.30891 | 2938 ft | 268 kts | 297° |
| 2026-04-16 18:27 | 5.51621 | -55.32478 | 2868 ft | 236 kts | 297° |
| 2026-04-16 18:27 | 5.52284 | -55.33912 | 2810 ft | 220 kts | 296° |
| 2026-04-16 18:28 | 5.52546 | -55.35342 | 2797 ft | 199 kts | 266° |
| 2026-04-16 18:28 | 5.52213 | -55.36604 | 2750 ft | 178 kts | 246° |
| 2026-04-16 18:28 | 5.51542 | -55.37601 | 2707 ft | 167 kts | 225° |
| 2026-04-16 18:28 | 5.50646 | -55.38312 | 2670 ft | 164 kts | 207° |
| 2026-04-16 18:29 | 5.49582 | -55.38718 | 2641 ft | 165 kts | 189° |
| 2026-04-16 18:29 | 5.48448 | -55.38781 | 2576 ft | 162 kts | 169° |
| 2026-04-16 18:29 | 5.47377 | -55.38504 | 2547 ft | 157 kts | 151° |
| 2026-04-16 18:29 | 5.46460 | -55.37935 | 2514 ft | 155 kts | 134° |
| 2026-04-16 18:30 | 5.45733 | -55.37103 | 2495 ft | 161 kts | 117° |
| 2026-04-16 18:30 | 5.45299 | -55.36078 | 2457 ft | 159 kts | 94° |
| 2026-04-16 18:30 | 5.45236 | -55.34975 | 2424 ft | 160 kts | 89° |
| 2026-04-16 18:30 | 5.45213 | -55.33855 | 2392 ft | 160 kts | 87° |
| 2026-04-16 18:31 | 5.45208 | -55.32735 | 2325 ft | 160 kts | 87° |
| 2026-04-16 18:31 | 5.45209 | -55.31632 | 2153 ft | 158 kts | 87° |
| 2026-04-16 18:31 | 5.45214 | -55.30529 | 1964 ft | 158 kts | 88° |
| 2026-04-16 18:31 | 5.45220 | -55.29443 | 1759 ft | 153 kts | 86° |
| 2026-04-16 18:32 | 5.45226 | -55.28399 | 1573 ft | 148 kts | 88° |
| 2026-04-16 18:32 | 5.45232 | -55.27365 | 1368 ft | 149 kts | 88° |
| 2026-04-16 18:32 | 5.45238 | -55.26338 | 1196 ft | 147 kts | 87° |
| 2026-04-16 18:32 | 5.45245 | -55.25313 | 991 ft | 149 kts | 90° |
| 2026-04-16 18:33 | 5.45250 | -55.24284 | 821 ft | 148 kts | 86° |
| 2026-04-16 18:33 | 5.45255 | -55.23254 | 671 ft | 151 kts | 86° |
| 2026-04-16 18:33 | 5.45263 | -55.22193 | 428 ft | 155 kts | 85° |
| 2026-04-16 18:33 | 5.45271 | -55.21120 | 250 ft | 153 kts | 83° |
| 2026-04-16 18:34 | 5.45276 | -55.20053 | 70 ft | 152 kts | 84° |
| 2026-04-16 18:34 | 5.45292 | -55.19129 | 59 ft | 109 kts | 89° |
| 2026-04-16 18:34 | 5.45289 | -55.18696 | 57 ft | 25 kts | 90° |
| 2026-04-16 18:34 | 5.45289 | -55.18666 | 57 ft | 0 kts | 95° |